ADDS METAR Data INFO
IDs: Format: Raw Decoded Include TAF

Data at: 0144 UTC 26 Feb 2018

KRSW 260053Z 23008KT 10SM BKN065 OVC095 23/21 A3013 RMK AO2 RAE05 SLP200 P0000 T02280206 $
KRSW 252353Z 25006KT 6SM RA FEW049 BKN065 OVC080 24/21 A3012 RMK AO2 RAB48 SLP198 P0002 60002 T02390206 10289 20239 53010 $
KRSW 252253Z 24010KT 10SM OVC060 26/20 A3011 RMK AO2 SLP193 T02560200
KRSW 252153Z 24010KT 10SM CLR 27/19 A3010 RMK AO2 SLP190 T02720189
KRSW 252053Z 24010KT 10SM SCT095 27/19 A3009 RMK AO2 SLP188 T02670189 56017
KRSW 251953Z 22011KT 10SM BKN090 27/19 A3010 RMK AO2 SLP191 T02720189
KRSW 251853Z 24007KT 10SM BKN039 BKN050 BKN090 27/19 A3012 RMK AO2 SLP196 T02720194
KRSW 251753Z 19008KT 140V220 10SM CLR 28/18 A3014 RMK AO2 SLP204 T02830183 10289 20178 58015
KRSW 251653Z 17008KT 10SM FEW035 27/19 A3017 RMK AO2 SLP214 T02720194
KRSW 251553Z 18009KT 10SM FEW027 27/20 A3019 RMK AO2 SLP220 T02670200
KRSW 251453Z 16011KT 10SM CLR 25/21 A3019 RMK AO2 SLP219 T02500206 50010
KRSW 251353Z 13005KT 10SM CLR 22/21 A3019 RMK AO2 SLP220 T02220206
KRSW 251253Z 10003KT 10SM CLR 19/19 A3017 RMK AO2 SLP215 T01940194
KRSW 251153Z 13004KT 9SM CLR 18/18 A3016 RMK AO2 SLP209 T01780178 10200 20172 53003
KRSW 251053Z AUTO 10003KT 9SM CLR 18/18 A3015 RMK AO2 SLP208 T01780178
KRSW 250953Z AUTO 07003KT 8SM CLR 18/18 A3015 RMK AO2 SLP206 T01780178
KRSW 250853Z AUTO 07004KT 10SM CLR 18/18 A3015 RMK AO2 SLP206 T01780178 58004
KRSW 250753Z AUTO 05003KT 10SM CLR 19/19 A3015 RMK AO2 SLP208 T01890189
KRSW 250653Z AUTO 08003KT 10SM CLR 19/19 A3016 RMK AO2 SLP209 T01940189
KRSW 250553Z AUTO 08003KT 10SM CLR 20/19 A3016 RMK AO2 SLP209 T02000194 10239 20200 53001
KRSW 250453Z AUTO 13005KT 10SM CLR 21/19 A3015 RMK AO2 SLP207 T02060194 403000189
KRSW 250353Z AUTO 13004KT 10SM CLR 22/19 A3016 RMK AO2 SLP209 T02170194
KRSW 250253Z AUTO 13007KT 10SM FEW065 SCT080 23/19 A3015 RMK AO2 SLP208 T02280189 51008
KRSW 250153Z AUTO 00000KT 10SM FEW037 SCT050 OVC060 23/22 A3015 RMK AO2 SLP207 T02280217
KRSW 250053Z AUTO 29003KT 10SM OVC041 23/22 A3014 RMK AO2 SLP202 T02330217
KRSW 242353Z AUTO 24005KT 10SM SCT040 BKN048 BKN080 24/21 A3013 RMK AO2 SLP200 T02390206 10300 20233 53007
KRSW 242253Z AUTO 22008KT 10SM SCT055 SCT095 24/20 A3012 RMK AO2 SLP198 T02440200
KRSW 242153Z AUTO 24009KT 10SM FEW090 26/20 A3011 RMK AO2 SLP194 T02560200
KRSW 242053Z AUTO 24009KT 10SM SCT060 BKN085 27/19 A3011 RMK AO2 SLP193 T02670194 55018
KRSW 241953Z AUTO 12009KT 090V160 10SM CLR 29/17 A3010 RMK AO2 SLP190 T02940172
KRSW 241853Z 14014G18KT 10SM CLR 29/17 A3012 RMK AO2 SLP198 T02940172
KRSW 241753Z 12011KT 10SM CLR 28/18 A3016 RMK AO2 SLP211 T02830178 10289 20194 58021
KRSW 241653Z 14011KT 10SM FEW037 28/18 A3019 RMK AO2 SLP221 T02780183
KRSW 241553Z 13013G20KT 10SM FEW029 27/19 A3021 RMK AO2 SLP229 T02670189
KRSW 241453Z 12013KT 10SM FEW023 25/20 A3022 RMK AO2 SLP231 T02500200 51006
KRSW 241353Z 11009KT 10SM BKN070 22/21 A3022 RMK AO2 SLP231 T02220206